createdAt,value
2023-01-10T00:00:56.586Z,0.80
2023-01-10T00:06:28.969Z,0.98
2023-01-10T00:09:34.620Z,1.13
2023-01-10T00:12:55.711Z,0.90
2023-01-10T00:15:28.570Z,1.00
2023-01-10T00:18:19.987Z,1.00
2023-01-10T00:32:58.817Z,1.10
2023-01-10T02:12:29.168Z,1.20
2023-01-10T06:01:52.106Z,0.90
2023-01-10T06:07:54.501Z,0.93
2023-01-10T06:10:42.281Z,1.00
2023-01-10T06:13:15.212Z,1.00
2023-01-10T06:15:48.762Z,1.10
2023-01-10T06:18:30.949Z,1.27
2023-01-10T06:21:03.863Z,1.10
2023-01-10T06:26:23.227Z,1.10
2023-01-10T06:28:55.917Z,1.10
2023-01-10T06:31:41.028Z,1.45
2023-01-10T06:34:20.193Z,1.13
2023-01-10T06:37:20.238Z,1.25
2023-01-10T06:39:58.732Z,1.13
2023-01-10T06:42:43.193Z,1.52
2023-01-10T06:45:36.765Z,1.00
2023-01-10T06:48:09.612Z,1.48
2023-01-10T06:51:09.409Z,1.10
2023-01-10T06:54:04.256Z,1.10
2023-01-10T06:59:52.129Z,1.10
2023-01-10T07:02:51.787Z,1.38
2023-01-10T07:11:35.629Z,1.42
2023-01-10T07:17:00.425Z,1.48
2023-01-10T07:19:44.993Z,1.30
2023-01-10T07:25:06.759Z,1.20
2023-01-10T07:30:40.017Z,1.75
2023-01-10T07:33:12.852Z,1.45
2023-01-10T07:36:07.844Z,1.40
2023-01-10T07:41:32.943Z,1.55
2023-01-10T07:44:28.007Z,1.23
2023-01-10T07:46:58.995Z,1.35
2023-01-10T07:50:33.134Z,0.93
2023-01-10T08:07:40.181Z,1.25
2023-01-10T08:10:13.053Z,1.13
2023-01-10T08:12:50.572Z,1.20
2023-01-10T08:25:40.891Z,1.30
2023-01-10T08:32:54.979Z,1.30
2023-01-10T08:43:35.425Z,1.55
2023-01-10T08:45:39.193Z,1.35
2023-01-10T08:50:01.121Z,1.42
2023-01-10T08:55:38.492Z,1.35
2023-01-10T08:58:27.884Z,1.30
2023-01-10T09:01:54.812Z,1.08
2023-01-10T09:04:33.113Z,1.30
2023-01-10T09:08:03.880Z,1.35
2023-01-10T09:11:57.599Z,1.25
2023-01-10T09:17:59.471Z,1.60
2023-01-10T09:21:00.578Z,1.58
2023-01-10T09:32:10.797Z,1.02
2023-01-10T09:34:43.447Z,1.25
2023-01-10T09:37:16.212Z,1.70
2023-01-10T09:40:22.281Z,1.60
2023-01-10T09:43:51.883Z,1.38
2023-01-10T09:47:25.435Z,1.30
2023-01-10T09:50:47.475Z,1.13
2023-01-10T09:53:45.824Z,1.20
2023-01-10T09:56:19.254Z,1.17
2023-01-10T09:58:52.951Z,1.23
2023-01-10T10:01:48.885Z,1.17
2023-01-10T10:04:53.349Z,1.77
2023-01-10T10:07:26.278Z,1.13
2023-01-10T10:10:00.372Z,1.23
2023-01-10T10:13:29.177Z,1.08
2023-01-10T10:16:50.198Z,1.25
2023-01-10T10:20:13.659Z,1.08
2023-01-10T10:23:20.589Z,1.00
2023-01-10T10:26:21.493Z,1.35
2023-01-10T10:29:25.470Z,1.17
2023-01-10T10:32:42.927Z,1.20
2023-01-10T10:36:45.787Z,0.95
2023-01-10T10:40:02.073Z,0.90
2023-01-10T10:43:31.296Z,1.23
2023-01-10T10:46:46.890Z,1.40
2023-01-10T10:49:57.142Z,1.40
2023-01-10T10:52:36.657Z,1.52
2023-01-10T10:55:36.376Z,1.40
2023-01-10T10:58:18.638Z,1.40
2023-01-10T11:00:52.963Z,1.65
2023-01-10T11:16:45.165Z,1.40
2023-01-10T11:19:26.828Z,1.00
2023-01-10T11:22:03.641Z,1.23
2023-01-10T11:24:56.861Z,1.83
2023-01-10T11:27:47.127Z,1.10
2023-01-10T11:30:25.536Z,1.45
2023-01-10T11:33:06.315Z,1.20
2023-01-10T11:36:25.365Z,1.50
2023-01-10T11:39:17.789Z,1.40
2023-01-10T11:41:53.277Z,1.38
2023-01-10T11:44:29.639Z,1.70
2023-01-10T11:47:20.978Z,1.50
2023-01-10T11:49:53.708Z,1.10
2023-01-10T11:52:29.869Z,1.35
2023-01-10T11:55:16.344Z,1.30
2023-01-10T11:58:12.906Z,1.33
2023-01-10T12:00:54.623Z,1.25
2023-01-10T12:03:40.481Z,1.30
2023-01-10T12:06:18.012Z,1.15
2023-01-10T12:08:53.053Z,1.35
2023-01-10T12:11:40.454Z,1.60
2023-01-10T12:14:20.519Z,1.30
2023-01-10T12:17:07.847Z,1.10
2023-01-10T12:19:40.582Z,1.00
2023-01-10T12:22:38.652Z,1.40
2023-01-10T12:25:41.898Z,1.00
2023-01-10T12:28:30.027Z,1.50
2023-01-10T12:31:05.684Z,1.02
2023-01-10T12:34:15.319Z,1.80
2023-01-10T12:37:05.840Z,1.60
2023-01-10T12:39:48.880Z,1.30
2023-01-10T12:43:22.865Z,1.40
2023-01-10T12:46:29.540Z,1.02
2023-01-10T12:49:38.539Z,1.30
2023-01-10T12:52:24.727Z,0.93
2023-01-10T12:54:58.716Z,1.45
2023-01-10T12:57:39.521Z,1.17
2023-01-10T13:00:40.312Z,1.50
2023-01-10T13:03:25.121Z,1.25
2023-01-10T13:05:59.418Z,1.30
2023-01-10T13:08:40.456Z,1.25
2023-01-10T13:11:22.399Z,1.50
2023-01-10T13:14:02.386Z,1.50
2023-01-10T13:17:24.801Z,1.20
2023-01-10T13:20:21.436Z,1.20
2023-01-10T13:23:01.040Z,1.30
2023-01-10T13:25:38.133Z,1.25
2023-01-10T13:28:26.951Z,1.27
2023-01-10T13:31:03.943Z,1.00
2023-01-10T13:33:59.440Z,1.40
2023-01-10T13:36:43.648Z,1.42
2023-01-10T13:39:33.382Z,1.45
2023-01-10T13:42:24.701Z,1.35
2023-01-10T13:45:13.376Z,1.58
2023-01-10T13:47:47.318Z,1.33
2023-01-10T13:50:22.593Z,1.20
2023-01-10T13:53:00.820Z,1.10
2023-01-10T13:55:56.175Z,1.65
2023-01-10T13:59:14.130Z,1.40
2023-01-10T14:02:18.598Z,1.42
2023-01-10T14:05:06.806Z,1.25
2023-01-10T14:07:42.017Z,1.20
2023-01-10T14:10:28.977Z,2.10
2023-01-10T14:13:24.655Z,1.20
2023-01-10T14:16:00.538Z,1.40
2023-01-10T14:18:39.306Z,1.58
2023-01-10T14:21:33.628Z,1.13
2023-01-10T14:24:16.801Z,1.40
2023-01-10T14:26:57.490Z,1.50
2023-01-10T14:29:34.005Z,1.40
2023-01-10T14:32:27.783Z,1.42
2023-01-10T14:35:28.104Z,1.60
2023-01-10T14:38:03.397Z,1.30
2023-01-10T14:40:43.505Z,1.20
2023-01-10T14:43:30.518Z,1.42
2023-01-10T14:46:15.963Z,1.35
2023-01-10T14:49:00.806Z,1.35
2023-01-10T14:51:33.441Z,1.33
2023-01-10T14:54:15.837Z,1.35
2023-01-10T14:56:51.613Z,1.10
2023-01-10T14:59:30.848Z,1.70
2023-01-10T15:02:24.025Z,1.38
2023-01-10T15:05:02.480Z,1.30
2023-01-10T15:07:36.622Z,1.73
2023-01-10T15:13:30.072Z,1.70
2023-01-10T15:16:05.554Z,1.52
2023-01-10T15:18:47.651Z,1.15
2023-01-10T15:21:32.619Z,1.80
2023-01-10T15:24:35.150Z,1.00
2023-01-10T15:27:15.424Z,1.38
2023-01-10T15:29:48.132Z,1.10
2023-01-10T15:32:39.338Z,1.15
2023-01-10T15:35:17.917Z,1.13
2023-01-10T15:38:08.243Z,1.30
2023-01-10T15:40:43.415Z,0.90
2023-01-10T15:43:18.787Z,1.10
2023-01-10T15:45:53.135Z,1.20
2023-01-10T15:48:39.632Z,1.15
2023-01-10T15:51:15.423Z,1.17
2023-01-10T15:53:57.934Z,1.00
2023-01-10T15:56:39.342Z,1.20
2023-01-10T15:59:50.965Z,1.48
2023-01-10T16:02:40.957Z,1.17
2023-01-10T16:05:32.225Z,0.90
2023-01-10T16:08:10.520Z,1.38
2023-01-10T16:10:55.803Z,1.10
2023-01-10T16:13:29.221Z,1.00
2023-01-10T16:16:31.525Z,1.38
2023-01-10T16:19:03.017Z,0.95
2023-01-10T16:21:44.438Z,1.20
2023-01-10T16:24:26.166Z,0.90
2023-01-10T16:27:03.018Z,1.00
2023-01-10T16:29:37.710Z,1.00
2023-01-10T16:32:14.697Z,0.90
2023-01-10T16:34:48.718Z,0.90
2023-01-10T16:37:21.337Z,0.98
2023-01-10T16:39:56.140Z,1.20
2023-01-10T16:42:49.953Z,0.82
2023-01-10T16:45:22.655Z,1.00
2023-01-10T16:47:55.266Z,0.80
2023-01-10T16:50:28.874Z,0.93
2023-01-10T16:53:01.903Z,1.00
2023-01-10T16:55:48.401Z,0.95
2023-01-10T16:58:21.436Z,0.82
2023-01-10T17:00:58.563Z,0.63
2023-01-10T17:03:47.535Z,0.70
2023-01-10T17:06:20.716Z,0.95
2023-01-10T17:09:03.059Z,0.82
2023-01-10T17:12:10.446Z,0.70
2023-01-10T17:16:00.059Z,0.73
2023-01-10T17:18:37.470Z,0.80
2023-01-10T17:21:34.885Z,0.93
2023-01-10T17:24:18.599Z,0.60
2023-01-10T17:26:56.808Z,1.10
2023-01-10T17:29:38.534Z,0.88
2023-01-10T17:32:11.520Z,0.75
2023-01-10T17:34:52.867Z,0.75
2023-01-10T17:37:56.923Z,0.50
2023-01-10T17:40:32.264Z,0.70
2023-01-10T17:43:05.278Z,0.70
2023-01-10T17:45:49.106Z,0.70
2023-01-10T17:48:27.512Z,0.52
2023-01-10T17:51:02.309Z,0.70
2023-01-10T17:53:43.985Z,0.60
2023-01-10T17:56:19.503Z,0.80
2023-01-10T17:59:04.116Z,0.73
2023-01-10T18:02:44.275Z,0.57
2023-01-10T18:05:25.446Z,0.73
2023-01-10T18:08:08.046Z,0.50
2023-01-10T18:11:00.476Z,0.70
2023-01-10T18:13:41.916Z,0.77
2023-01-10T18:16:27.444Z,0.70
2023-01-10T18:19:07.944Z,0.52
2023-01-10T18:21:40.549Z,0.70
2023-01-10T18:24:13.274Z,0.55
2023-01-10T18:26:47.609Z,0.68
2023-01-10T18:29:20.595Z,0.45
2023-01-10T18:32:04.431Z,0.50
2023-01-10T18:34:40.336Z,0.65
2023-01-10T18:37:15.978Z,0.43
2023-01-10T18:40:00.559Z,0.40
2023-01-10T18:45:27.968Z,0.60
2023-01-10T18:48:02.056Z,0.60
2023-01-10T18:53:19.266Z,0.50
2023-01-10T18:56:16.169Z,0.60
2023-01-10T18:59:03.989Z,0.55
2023-01-10T19:01:36.594Z,0.50
2023-01-10T19:04:15.038Z,0.50
2023-01-10T19:06:56.983Z,0.43
2023-01-10T19:09:29.732Z,0.30
2023-01-10T19:12:02.331Z,0.40
2023-01-10T19:14:35.954Z,0.40
2023-01-10T19:17:09.737Z,0.40
2023-01-10T19:19:42.403Z,0.35
2023-01-10T19:22:23.546Z,0.40
2023-01-10T19:24:56.211Z,0.45
2023-01-10T19:27:28.910Z,0.30
2023-01-10T19:30:01.948Z,0.30
2023-01-10T19:32:36.194Z,0.40
2023-01-10T19:37:41.868Z,0.38
2023-01-10T19:40:14.914Z,0.52
2023-01-10T19:42:56.706Z,0.30
2023-01-10T19:45:29.616Z,0.40
2023-01-10T19:48:04.462Z,0.40
2023-01-10T19:53:37.810Z,0.45
2023-01-10T19:56:26.538Z,0.40
2023-01-10T19:58:59.219Z,0.40
2023-01-10T20:01:37.245Z,0.57
2023-01-10T20:04:10.389Z,0.40
2023-01-10T20:06:43.690Z,0.30
2023-01-10T20:09:16.383Z,0.50
2023-01-10T20:11:49.175Z,0.50
2023-01-10T20:14:22.340Z,0.35
2023-01-10T20:16:55.029Z,0.38
2023-01-10T20:19:27.607Z,0.40
2023-01-10T20:22:00.287Z,0.38
2023-01-10T20:24:33.008Z,0.30
2023-01-10T20:27:09.675Z,0.50
2023-01-10T20:29:52.769Z,0.40
2023-01-10T20:32:25.408Z,0.40
2023-01-10T20:34:58.136Z,0.40
2023-01-10T20:37:32.940Z,0.30
2023-01-10T20:40:26.122Z,0.35
2023-01-10T20:43:01.064Z,0.73
2023-01-10T20:45:34.458Z,0.40
2023-01-10T20:48:28.063Z,0.40
2023-01-10T20:51:41.078Z,0.30
2023-01-10T20:54:13.691Z,0.40
2023-01-10T20:56:46.567Z,0.40
2023-01-10T20:59:29.404Z,0.40
2023-01-10T21:02:06.212Z,0.40
2023-01-10T21:04:40.017Z,0.40
2023-01-10T21:07:12.962Z,0.50
2023-01-10T21:09:45.674Z,0.30
2023-01-10T21:12:36.092Z,0.40
2023-01-10T21:15:24.181Z,0.40
2023-01-10T21:17:56.723Z,0.50
2023-01-10T21:20:30.215Z,0.40
2023-01-10T21:23:02.753Z,0.30
2023-01-10T21:25:35.599Z,0.43
2023-01-10T21:28:11.590Z,0.40
2023-01-10T21:30:59.658Z,0.40
2023-01-10T21:33:35.820Z,0.30
2023-01-10T21:36:09.495Z,0.60
2023-01-10T21:38:42.153Z,0.40
2023-01-10T21:41:37.334Z,0.30
2023-01-10T21:44:10.253Z,0.40
2023-01-10T21:46:53.056Z,0.38
2023-01-10T21:49:46.104Z,0.30
2023-01-10T21:52:19.111Z,0.30
2023-01-10T21:54:51.702Z,0.35
2023-01-10T21:57:28.184Z,0.40
2023-01-10T22:00:00.832Z,0.38
2023-01-10T22:02:35.232Z,0.30
2023-01-10T22:05:10.152Z,0.50
2023-01-10T22:07:44.940Z,0.30
2023-01-10T22:10:40.545Z,0.55
2023-01-10T22:13:11.319Z,0.30
2023-01-10T22:15:44.578Z,0.60
2023-01-10T22:18:17.140Z,0.40
2023-01-10T22:20:49.684Z,0.40
2023-01-10T22:23:23.927Z,0.50
2023-01-10T22:28:40.955Z,0.30
2023-01-10T22:31:13.773Z,0.30
2023-01-10T22:33:46.556Z,0.30
2023-01-10T22:36:19.982Z,0.30
2023-01-10T22:38:52.684Z,0.30
2023-01-10T22:41:26.912Z,0.30
2023-01-10T22:44:00.000Z,0.30
2023-01-10T22:46:33.747Z,0.38
2023-01-10T22:49:06.430Z,0.30
2023-01-10T22:51:39.145Z,0.30
2023-01-10T22:54:35.711Z,0.30
2023-01-10T22:57:06.360Z,0.40
2023-01-10T22:59:38.933Z,0.40
2023-01-10T23:02:11.532Z,0.30
2023-01-10T23:04:44.052Z,0.30
2023-01-10T23:07:16.554Z,0.30
2023-01-10T23:09:49.059Z,0.47
2023-01-10T23:12:21.611Z,0.30
2023-01-10T23:14:55.109Z,0.20
2023-01-10T23:17:27.811Z,0.40
2023-01-10T23:20:00.330Z,0.38
2023-01-10T23:22:32.869Z,0.40
2023-01-10T23:25:06.300Z,0.30
2023-01-10T23:27:40.241Z,0.30
2023-01-10T23:30:13.031Z,0.40
2023-01-10T23:32:45.553Z,0.40
2023-01-10T23:35:18.082Z,0.30
2023-01-10T23:37:51.268Z,0.40
2023-01-10T23:40:24.115Z,0.30
2023-01-10T23:42:56.629Z,0.40
2023-01-10T23:45:29.217Z,0.50
2023-01-10T23:48:01.876Z,0.50
2023-01-10T23:50:35.374Z,0.50
2023-01-10T23:53:10.526Z,0.20
2023-01-10T23:55:43.269Z,0.40
2023-01-10T23:58:17.221Z,0.30
